sensor_id;sensor_type;location;lat;lon;timestamp;temperature;humidity
24326;DHT22;12448;45.532;5.290;2023-09-19T00:00:16;20.00;95.10
24326;DHT22;12448;45.532;5.290;2023-09-19T00:02:46;20.00;95.00
24326;DHT22;12448;45.532;5.290;2023-09-19T00:05:17;20.00;94.90
24326;DHT22;12448;45.532;5.290;2023-09-19T00:11:13;19.90;95.00
24326;DHT22;12448;45.532;5.290;2023-09-19T00:17:18;19.90;95.10
24326;DHT22;12448;45.532;5.290;2023-09-19T00:20:21;19.90;95.10
24326;DHT22;12448;45.532;5.290;2023-09-19T00:23:19;20.00;95.20
24326;DHT22;12448;45.532;5.290;2023-09-19T00:25:45;19.90;95.30
24326;DHT22;12448;45.532;5.290;2023-09-19T00:28:11;19.90;95.20
24326;DHT22;12448;45.532;5.290;2023-09-19T00:30:42;19.80;95.10
24326;DHT22;12448;45.532;5.290;2023-09-19T00:33:35;19.80;95.20
24326;DHT22;12448;45.532;5.290;2023-09-19T00:36:56;19.90;95.20
24326;DHT22;12448;45.532;5.290;2023-09-19T00:40:20;19.80;95.30
24326;DHT22;12448;45.532;5.290;2023-09-19T00:42:49;19.80;95.20
24326;DHT22;12448;45.532;5.290;2023-09-19T00:45:16;19.80;95.20
24326;DHT22;12448;45.532;5.290;2023-09-19T00:47:50;19.80;95.10
24326;DHT22;12448;45.532;5.290;2023-09-19T00:50:18;19.80;95.20
24326;DHT22;12448;45.532;5.290;2023-09-19T00:55:34;19.70;95.10
24326;DHT22;12448;45.532;5.290;2023-09-19T00:58:09;19.70;95.10
24326;DHT22;12448;45.532;5.290;2023-09-19T01:00:48;19.60;95.00
24326;DHT22;12448;45.532;5.290;2023-09-19T01:03:18;19.60;95.10
24326;DHT22;12448;45.532;5.290;2023-09-19T01:06:05;19.40;95.30
24326;DHT22;12448;45.532;5.290;2023-09-19T01:08:31;19.40;95.70
24326;DHT22;12448;45.532;5.290;2023-09-19T01:13:51;19.40;96.00
24326;DHT22;12448;45.532;5.290;2023-09-19T01:19:29;19.30;96.10
24326;DHT22;12448;45.532;5.290;2023-09-19T01:32:07;19.50;96.20
24326;DHT22;12448;45.532;5.290;2023-09-19T01:47:42;19.70;96.20
24326;DHT22;12448;45.532;5.290;2023-09-19T01:50:59;19.70;96.10
24326;DHT22;12448;45.532;5.290;2023-09-19T02:00:20;19.80;96.10
24326;DHT22;12448;45.532;5.290;2023-09-19T02:02:56;19.80;96.10
24326;DHT22;12448;45.532;5.290;2023-09-19T02:05:41;19.70;96.00
24326;DHT22;12448;45.532;5.290;2023-09-19T02:08:36;19.70;95.90
24326;DHT22;12448;45.532;5.290;2023-09-19T02:14:05;19.70;95.90
24326;DHT22;12448;45.532;5.290;2023-09-19T02:16:34;19.20;95.80
24326;DHT22;12448;45.532;5.290;2023-09-19T02:19:20;19.60;95.90
24326;DHT22;12448;45.532;5.290;2023-09-19T02:28:54;19.70;96.10
24326;DHT22;12448;45.532;5.290;2023-09-19T02:31:35;19.70;96.00
24326;DHT22;12448;45.532;5.290;2023-09-19T02:34:19;19.60;95.90
24326;DHT22;12448;45.532;5.290;2023-09-19T02:37:25;19.60;95.90
24326;DHT22;12448;45.532;5.290;2023-09-19T02:40:06;19.50;95.80
24326;DHT22;12448;45.532;5.290;2023-09-19T02:43:10;19.40;95.90
24326;DHT22;12448;45.532;5.290;2023-09-19T02:46:12;19.40;96.00
24326;DHT22;12448;45.532;5.290;2023-09-19T02:48:57;19.30;96.20
24326;DHT22;12448;45.532;5.290;2023-09-19T02:51:23;19.30;96.30
24326;DHT22;12448;45.532;5.290;2023-09-19T02:54:05;19.20;96.40
24326;DHT22;12448;45.532;5.290;2023-09-19T02:56:49;19.20;96.50
24326;DHT22;12448;45.532;5.290;2023-09-19T02:59:36;19.20;96.60
24326;DHT22;12448;45.532;5.290;2023-09-19T03:02:05;19.20;96.70
24326;DHT22;12448;45.532;5.290;2023-09-19T03:04:34;19.10;96.70
24326;DHT22;12448;45.532;5.290;2023-09-19T03:07:06;19.10;96.80
24326;DHT22;12448;45.532;5.290;2023-09-19T03:09:38;19.00;96.60
24326;DHT22;12448;45.532;5.290;2023-09-19T03:12:36;19.00;96.30
24326;DHT22;12448;45.532;5.290;2023-09-19T03:15:14;18.90;95.50
24326;DHT22;12448;45.532;5.290;2023-09-19T03:17:51;18.90;95.10
24326;DHT22;12448;45.532;5.290;2023-09-19T03:23:27;18.90;95.40
24326;DHT22;12448;45.532;5.290;2023-09-19T03:25:53;18.90;95.60
24326;DHT22;12448;45.532;5.290;2023-09-19T03:28:44;18.90;95.70
24326;DHT22;12448;45.532;5.290;2023-09-19T03:31:20;18.80;96.10
24326;DHT22;12448;45.532;5.290;2023-09-19T03:34:30;18.60;96.70
24326;DHT22;12448;45.532;5.290;2023-09-19T03:37:01;18.50;97.20
24326;DHT22;12448;45.532;5.290;2023-09-19T03:39:42;18.30;97.70
24326;DHT22;12448;45.532;5.290;2023-09-19T03:42:11;18.40;98.10
24326;DHT22;12448;45.532;5.290;2023-09-19T03:45:07;18.40;98.50
24326;DHT22;12448;45.532;5.290;2023-09-19T03:47:43;18.40;98.60
24326;DHT22;12448;45.532;5.290;2023-09-19T03:50:09;19.00;98.70
24326;DHT22;12448;45.532;5.290;2023-09-19T03:52:57;18.40;98.40
24326;DHT22;12448;45.532;5.290;2023-09-19T03:55:30;18.40;98.40
24326;DHT22;12448;45.532;5.290;2023-09-19T03:58:07;18.40;98.40
24326;DHT22;12448;45.532;5.290;2023-09-19T04:00:36;18.40;98.30
24326;DHT22;12448;45.532;5.290;2023-09-19T04:03:01;18.40;98.30
24326;DHT22;12448;45.532;5.290;2023-09-19T04:05:34;18.30;98.40
24326;DHT22;12448;45.532;5.290;2023-09-19T04:08:22;18.30;98.40
24326;DHT22;12448;45.532;5.290;2023-09-19T04:14:17;18.20;98.10
24326;DHT22;12448;45.532;5.290;2023-09-19T04:16:45;18.30;98.10
24326;DHT22;12448;45.532;5.290;2023-09-19T04:19:14;18.30;98.00
24326;DHT22;12448;45.532;5.290;2023-09-19T04:21:48;18.30;98.00
24326;DHT22;12448;45.532;5.290;2023-09-19T04:24:14;18.30;97.80
24326;DHT22;12448;45.532;5.290;2023-09-19T04:26:49;18.30;98.00
24326;DHT22;12448;45.532;5.290;2023-09-19T04:29:14;18.30;98.00
24326;DHT22;12448;45.532;5.290;2023-09-19T04:31:41;18.40;97.90
24326;DHT22;12448;45.532;5.290;2023-09-19T04:34:09;18.40;97.80
24326;DHT22;12448;45.532;5.290;2023-09-19T04:36:35;18.40;97.70
24326;DHT22;12448;45.532;5.290;2023-09-19T04:39:05;18.50;97.70
24326;DHT22;12448;45.532;5.290;2023-09-19T04:41:34;18.50;97.70
24326;DHT22;12448;45.532;5.290;2023-09-19T04:44:16;18.50;97.40
24326;DHT22;12448;45.532;5.290;2023-09-19T04:46:41;18.60;97.50
24326;DHT22;12448;45.532;5.290;2023-09-19T04:49:07;18.60;97.40
24326;DHT22;12448;45.532;5.290;2023-09-19T04:51:36;18.60;97.20
24326;DHT22;12448;45.532;5.290;2023-09-19T04:54:02;18.70;97.00
24326;DHT22;12448;45.532;5.290;2023-09-19T04:56:28;18.60;96.90
24326;DHT22;12448;45.532;5.290;2023-09-19T04:59:14;18.60;96.90
24326;DHT22;12448;45.532;5.290;2023-09-19T05:01:41;18.70;96.90
24326;DHT22;12448;45.532;5.290;2023-09-19T05:04:15;18.70;96.70
24326;DHT22;12448;45.532;5.290;2023-09-19T05:06:52;18.80;96.70
24326;DHT22;12448;45.532;5.290;2023-09-19T05:09:19;19.40;96.80
24326;DHT22;12448;45.532;5.290;2023-09-19T05:11:45;18.90;96.60
24326;DHT22;12448;45.532;5.290;2023-09-19T05:14:40;18.90;96.50
24326;DHT22;12448;45.532;5.290;2023-09-19T05:17:30;19.00;96.50
24326;DHT22;12448;45.532;5.290;2023-09-19T05:20:10;19.00;96.50
24326;DHT22;12448;45.532;5.290;2023-09-19T05:22:41;19.00;96.50
24326;DHT22;12448;45.532;5.290;2023-09-19T05:25:09;19.00;96.40
24326;DHT22;12448;45.532;5.290;2023-09-19T05:27:35;19.00;96.40
24326;DHT22;12448;45.532;5.290;2023-09-19T05:30:01;19.00;96.30
24326;DHT22;12448;45.532;5.290;2023-09-19T05:33:30;19.10;96.30
24326;DHT22;12448;45.532;5.290;2023-09-19T05:35:35;19.10;96.40
24326;DHT22;12448;45.532;5.290;2023-09-19T05:41:38;19.10;96.50
24326;DHT22;12448;45.532;5.290;2023-09-19T05:49:04;19.20;96.50
24326;DHT22;12448;45.532;5.290;2023-09-19T05:58:44;19.10;96.50
24326;DHT22;12448;45.532;5.290;2023-09-19T06:18:11;19.20;96.40
24326;DHT22;12448;45.532;5.290;2023-09-19T06:21:32;19.20;96.30
24326;DHT22;12448;45.532;5.290;2023-09-19T06:24:39;19.20;96.20
24326;DHT22;12448;45.532;5.290;2023-09-19T06:30:54;19.30;96.20
24326;DHT22;12448;45.532;5.290;2023-09-19T06:33:54;19.30;96.20
24326;DHT22;12448;45.532;5.290;2023-09-19T06:36:57;19.30;96.20
24326;DHT22;12448;45.532;5.290;2023-09-19T06:39:43;19.30;96.10
24326;DHT22;12448;45.532;5.290;2023-09-19T06:42:09;19.30;96.10
24326;DHT22;12448;45.532;5.290;2023-09-19T06:44:34;19.30;96.00
24326;DHT22;12448;45.532;5.290;2023-09-19T06:47:00;19.40;96.00
24326;DHT22;12448;45.532;5.290;2023-09-19T06:52:20;19.30;95.30
24326;DHT22;12448;45.532;5.290;2023-09-19T06:55:13;19.30;95.40
24326;DHT22;12448;45.532;5.290;2023-09-19T06:57:42;19.40;95.30
24326;DHT22;12448;45.532;5.290;2023-09-19T07:00:09;18.90;95.10
24326;DHT22;12448;45.532;5.290;2023-09-19T07:02:41;19.50;95.20
24326;DHT22;12448;45.532;5.290;2023-09-19T07:05:19;19.60;95.10
24326;DHT22;12448;45.532;5.290;2023-09-19T07:08:09;19.60;95.00
24326;DHT22;12448;45.532;5.290;2023-09-19T07:10:43;19.70;94.70
24326;DHT22;12448;45.532;5.290;2023-09-19T07:16:31;19.50;94.20
24326;DHT22;12448;45.532;5.290;2023-09-19T07:19:13;19.50;94.20
24326;DHT22;12448;45.532;5.290;2023-09-19T07:22:08;19.50;94.30
24326;DHT22;12448;45.532;5.290;2023-09-19T07:25:36;19.60;94.30
24326;DHT22;12448;45.532;5.290;2023-09-19T07:28:01;19.50;94.00
24326;DHT22;12448;45.532;5.290;2023-09-19T07:30:27;19.50;94.20
24326;DHT22;12448;45.532;5.290;2023-09-19T07:32:53;19.50;94.20
24326;DHT22;12448;45.532;5.290;2023-09-19T07:35:22;19.50;94.20
24326;DHT22;12448;45.532;5.290;2023-09-19T07:38:14;19.50;94.00
24326;DHT22;12448;45.532;5.290;2023-09-19T07:46:37;19.40;93.80
24326;DHT22;12448;45.532;5.290;2023-09-19T07:50:02;19.40;93.70
24326;DHT22;12448;45.532;5.290;2023-09-19T07:52:38;19.40;93.70
24326;DHT22;12448;45.532;5.290;2023-09-19T07:58:48;19.40;93.70
24326;DHT22;12448;45.532;5.290;2023-09-19T08:01:14;19.30;93.60
24326;DHT22;12448;45.532;5.290;2023-09-19T08:04:38;19.30;93.80
24326;DHT22;12448;45.532;5.290;2023-09-19T08:07:55;19.30;94.00
24326;DHT22;12448;45.532;5.290;2023-09-19T08:10:53;19.40;94.20
24326;DHT22;12448;45.532;5.290;2023-09-19T08:13:54;19.40;93.90
24326;DHT22;12448;45.532;5.290;2023-09-19T08:16:20;19.40;93.30
24326;DHT22;12448;45.532;5.290;2023-09-19T08:18:48;19.30;93.50
24326;DHT22;12448;45.532;5.290;2023-09-19T08:21:14;19.30;93.40
24326;DHT22;12448;45.532;5.290;2023-09-19T08:23:41;19.30;93.70
24326;DHT22;12448;45.532;5.290;2023-09-19T08:26:07;19.30;93.80
24326;DHT22;12448;45.532;5.290;2023-09-19T08:28:36;19.40;93.90
24326;DHT22;12448;45.532;5.290;2023-09-19T08:31:06;19.50;94.00
24326;DHT22;12448;45.532;5.290;2023-09-19T08:33:39;19.60;94.00
24326;DHT22;12448;45.532;5.290;2023-09-19T08:37:00;19.50;93.80
24326;DHT22;12448;45.532;5.290;2023-09-19T08:39:48;19.50;93.90
24326;DHT22;12448;45.532;5.290;2023-09-19T08:42:54;19.60;94.20
24326;DHT22;12448;45.532;5.290;2023-09-19T08:45:40;19.70;93.80
24326;DHT22;12448;45.532;5.290;2023-09-19T08:51:32;19.80;93.50
24326;DHT22;12448;45.532;5.290;2023-09-19T09:01:58;20.00;93.00
24326;DHT22;12448;45.532;5.290;2023-09-19T09:04:55;20.00;93.00
24326;DHT22;12448;45.532;5.290;2023-09-19T09:08:33;20.00;92.80
24326;DHT22;12448;45.532;5.290;2023-09-19T09:24:31;19.90;92.30
24326;DHT22;12448;45.532;5.290;2023-09-19T09:27:21;20.10;92.30
24326;DHT22;12448;45.532;5.290;2023-09-19T09:29:53;20.10;92.40
24326;DHT22;12448;45.532;5.290;2023-09-19T09:32:27;20.20;92.40
24326;DHT22;12448;45.532;5.290;2023-09-19T09:35:01;20.30;92.40
24326;DHT22;12448;45.532;5.290;2023-09-19T09:37:28;20.40;92.30
24326;DHT22;12448;45.532;5.290;2023-09-19T09:39:58;20.50;92.20
24326;DHT22;12448;45.532;5.290;2023-09-19T09:42:34;20.60;92.20
24326;DHT22;12448;45.532;5.290;2023-09-19T09:45:20;20.80;92.00
24326;DHT22;12448;45.532;5.290;2023-09-19T09:48:05;20.90;92.30
24326;DHT22;12448;45.532;5.290;2023-09-19T09:50:46;21.00;91.90
24326;DHT22;12448;45.532;5.290;2023-09-19T09:53:29;21.00;91.60
24326;DHT22;12448;45.532;5.290;2023-09-19T09:56:09;21.10;91.50
24326;DHT22;12448;45.532;5.290;2023-09-19T09:58:49;21.10;91.10
24326;DHT22;12448;45.532;5.290;2023-09-19T10:01:14;21.00;90.90
24326;DHT22;12448;45.532;5.290;2023-09-19T10:03:42;20.90;90.80
24326;DHT22;12448;45.532;5.290;2023-09-19T10:06:15;21.00;90.90
24326;DHT22;12448;45.532;5.290;2023-09-19T10:09:04;21.00;90.80
24326;DHT22;12448;45.532;5.290;2023-09-19T10:12:06;21.00;90.80
24326;DHT22;12448;45.532;5.290;2023-09-19T10:14:37;21.00;90.80
24326;DHT22;12448;45.532;5.290;2023-09-19T10:17:05;21.10;90.80
24326;DHT22;12448;45.532;5.290;2023-09-19T10:19:54;21.10;90.70
24326;DHT22;12448;45.532;5.290;2023-09-19T10:22:23;21.20;90.50
24326;DHT22;12448;45.532;5.290;2023-09-19T10:24:55;21.20;90.30
24326;DHT22;12448;45.532;5.290;2023-09-19T10:28:05;21.20;90.60
24326;DHT22;12448;45.532;5.290;2023-09-19T10:30:55;21.20;90.20
24326;DHT22;12448;45.532;5.290;2023-09-19T10:33:38;21.20;90.20
24326;DHT22;12448;45.532;5.290;2023-09-19T10:36:57;21.10;89.50
24326;DHT22;12448;45.532;5.290;2023-09-19T10:39:11;21.10;87.50
24326;DHT22;12448;45.532;5.290;2023-09-19T10:41:50;21.20;88.90
24326;DHT22;12448;45.532;5.290;2023-09-19T10:44:32;21.30;89.00
24326;DHT22;12448;45.532;5.290;2023-09-19T10:46:58;21.40;89.00
24326;DHT22;12448;45.532;5.290;2023-09-19T10:49:24;21.50;88.70
24326;DHT22;12448;45.532;5.290;2023-09-19T10:51:54;21.50;87.70
24326;DHT22;12448;45.532;5.290;2023-09-19T10:54:27;21.50;86.90
24326;DHT22;12448;45.532;5.290;2023-09-19T10:56:54;21.60;87.30
24326;DHT22;12448;45.532;5.290;2023-09-19T10:59:29;21.60;87.30
24326;DHT22;12448;45.532;5.290;2023-09-19T11:02:18;21.70;86.00
24326;DHT22;12448;45.532;5.290;2023-09-19T11:04:44;21.80;84.50
24326;DHT22;12448;45.532;5.290;2023-09-19T11:07:14;21.80;85.40
24326;DHT22;12448;45.532;5.290;2023-09-19T11:09:55;22.00;85.80
24326;DHT22;12448;45.532;5.290;2023-09-19T11:12:54;22.10;86.00
24326;DHT22;12448;45.532;5.290;2023-09-19T11:19:05;22.10;81.10
24326;DHT22;12448;45.532;5.290;2023-09-19T11:27:10;22.00;83.20
24326;DHT22;12448;45.532;5.290;2023-09-19T11:29:39;22.00;83.20
24326;DHT22;12448;45.532;5.290;2023-09-19T11:32:06;22.10;82.80
24326;DHT22;12448;45.532;5.290;2023-09-19T11:34:44;22.10;82.50
24326;DHT22;12448;45.532;5.290;2023-09-19T11:39:40;22.00;82.80
24326;DHT22;12448;45.532;5.290;2023-09-19T11:42:45;22.00;83.40
24326;DHT22;12448;45.532;5.290;2023-09-19T11:48:24;22.10;83.90
24326;DHT22;12448;45.532;5.290;2023-09-19T11:50:53;22.20;84.10
24326;DHT22;12448;45.532;5.290;2023-09-19T11:53:20;22.30;83.80
24326;DHT22;12448;45.532;5.290;2023-09-19T11:55:46;22.50;83.10
24326;DHT22;12448;45.532;5.290;2023-09-19T11:58:15;22.60;81.30
24326;DHT22;12448;45.532;5.290;2023-09-19T12:00:43;22.70;81.20
24326;DHT22;12448;45.532;5.290;2023-09-19T12:03:11;22.80;81.40
24326;DHT22;12448;45.532;5.290;2023-09-19T12:05:39;22.80;81.30
24326;DHT22;12448;45.532;5.290;2023-09-19T12:08:05;22.80;78.60
24326;DHT22;12448;45.532;5.290;2023-09-19T12:10:47;22.80;79.00
24326;DHT22;12448;45.532;5.290;2023-09-19T12:13:17;22.70;79.40
24326;DHT22;12448;45.532;5.290;2023-09-19T12:15:44;22.80;78.60
24326;DHT22;12448;45.532;5.290;2023-09-19T12:18:26;22.60;77.50
24326;DHT22;12448;45.532;5.290;2023-09-19T12:20:52;22.60;77.90
24326;DHT22;12448;45.532;5.290;2023-09-19T12:23:22;22.60;78.80
24326;DHT22;12448;45.532;5.290;2023-09-19T12:25:48;22.50;76.00
24326;DHT22;12448;45.532;5.290;2023-09-19T12:28:14;22.50;76.10
24326;DHT22;12448;45.532;5.290;2023-09-19T12:30:42;22.40;73.80
24326;DHT22;12448;45.532;5.290;2023-09-19T12:33:20;22.40;75.00
24326;DHT22;12448;45.532;5.290;2023-09-19T12:35:51;22.40;75.20
24326;DHT22;12448;45.532;5.290;2023-09-19T12:38:26;22.50;76.80
24326;DHT22;12448;45.532;5.290;2023-09-19T12:40:55;22.70;78.20
24326;DHT22;12448;45.532;5.290;2023-09-19T12:43:22;22.80;78.80
24326;DHT22;12448;45.532;5.290;2023-09-19T12:45:48;23.00;78.70
24326;DHT22;12448;45.532;5.290;2023-09-19T12:48:24;23.10;78.10
24326;DHT22;12448;45.532;5.290;2023-09-19T12:51:08;23.10;77.00
24326;DHT22;12448;45.532;5.290;2023-09-19T12:53:43;23.00;77.30
24326;DHT22;12448;45.532;5.290;2023-09-19T12:56:13;22.90;78.20
24326;DHT22;12448;45.532;5.290;2023-09-19T12:58:52;22.80;78.30
24326;DHT22;12448;45.532;5.290;2023-09-19T13:01:22;22.80;78.30
24326;DHT22;12448;45.532;5.290;2023-09-19T13:04:14;22.70;78.70
24326;DHT22;12448;45.532;5.290;2023-09-19T13:06:48;22.80;78.90
24326;DHT22;12448;45.532;5.290;2023-09-19T13:09:16;22.80;78.10
24326;DHT22;12448;45.532;5.290;2023-09-19T13:11:42;22.90;76.30
24326;DHT22;12448;45.532;5.290;2023-09-19T13:14:23;22.80;75.70
24326;DHT22;12448;45.532;5.290;2023-09-19T13:16:59;22.90;75.00
24326;DHT22;12448;45.532;5.290;2023-09-19T13:19:48;22.80;76.10
24326;DHT22;12448;45.532;5.290;2023-09-19T13:22:40;22.70;76.70
24326;DHT22;12448;45.532;5.290;2023-09-19T13:25:18;22.80;76.30
24326;DHT22;12448;45.532;5.290;2023-09-19T13:27:45;22.90;76.50
24326;DHT22;12448;45.532;5.290;2023-09-19T13:30:12;22.90;76.00
24326;DHT22;12448;45.532;5.290;2023-09-19T13:32:38;23.00;76.30
24326;DHT22;12448;45.532;5.290;2023-09-19T13:35:06;23.10;76.40
24326;DHT22;12448;45.532;5.290;2023-09-19T13:37:34;23.20;76.20
24326;DHT22;12448;45.532;5.290;2023-09-19T13:40:07;23.40;75.90
24326;DHT22;12448;45.532;5.290;2023-09-19T13:42:33;23.50;74.80
24326;DHT22;12448;45.532;5.290;2023-09-19T13:44:59;23.50;73.60
24326;DHT22;12448;45.532;5.290;2023-09-19T13:47:24;23.50;71.70
24326;DHT22;12448;45.532;5.290;2023-09-19T13:49:52;23.50;70.10
24326;DHT22;12448;45.532;5.290;2023-09-19T13:52:19;23.50;70.60
24326;DHT22;12448;45.532;5.290;2023-09-19T13:54:45;23.40;69.10
24326;DHT22;12448;45.532;5.290;2023-09-19T13:57:10;23.40;70.50
24326;DHT22;12448;45.532;5.290;2023-09-19T13:59:36;23.50;71.40
24326;DHT22;12448;45.532;5.290;2023-09-19T14:02:01;23.50;72.30
24326;DHT22;12448;45.532;5.290;2023-09-19T14:04:31;23.60;72.40
24326;DHT22;12448;45.532;5.290;2023-09-19T14:06:57;23.70;71.50
24326;DHT22;12448;45.532;5.290;2023-09-19T14:09:23;23.70;71.20
24326;DHT22;12448;45.532;5.290;2023-09-19T14:11:50;23.80;71.00
24326;DHT22;12448;45.532;5.290;2023-09-19T14:14:20;23.80;70.30
24326;DHT22;12448;45.532;5.290;2023-09-19T14:16:47;23.80;70.90
24326;DHT22;12448;45.532;5.290;2023-09-19T14:19:13;23.90;70.60
24326;DHT22;12448;45.532;5.290;2023-09-19T14:21:42;23.90;69.40
24326;DHT22;12448;45.532;5.290;2023-09-19T14:24:07;23.90;70.30
24326;DHT22;12448;45.532;5.290;2023-09-19T14:26:37;23.90;69.00
24326;DHT22;12448;45.532;5.290;2023-09-19T14:29:03;23.90;68.00
24326;DHT22;12448;45.532;5.290;2023-09-19T14:31:28;23.80;68.40
24326;DHT22;12448;45.532;5.290;2023-09-19T14:33:57;23.90;68.90
24326;DHT22;12448;45.532;5.290;2023-09-19T14:36:25;23.90;68.90
24326;DHT22;12448;45.532;5.290;2023-09-19T14:38:53;23.90;68.60
24326;DHT22;12448;45.532;5.290;2023-09-19T14:41:23;23.90;69.10
24326;DHT22;12448;45.532;5.290;2023-09-19T14:43:54;23.80;65.70
24326;DHT22;12448;45.532;5.290;2023-09-19T14:46:23;23.60;67.00
24326;DHT22;12448;45.532;5.290;2023-09-19T14:48:52;23.60;68.10
24326;DHT22;12448;45.532;5.290;2023-09-19T14:51:18;23.50;67.70
24326;DHT22;12448;45.532;5.290;2023-09-19T14:53:47;23.60;68.40
24326;DHT22;12448;45.532;5.290;2023-09-19T14:56:13;23.50;68.60
24326;DHT22;12448;45.532;5.290;2023-09-19T14:58:43;23.50;68.50
24326;DHT22;12448;45.532;5.290;2023-09-19T15:01:10;23.50;68.50
24326;DHT22;12448;45.532;5.290;2023-09-19T15:03:37;23.60;68.60
24326;DHT22;12448;45.532;5.290;2023-09-19T15:06:06;23.60;68.60
24326;DHT22;12448;45.532;5.290;2023-09-19T15:08:36;23.60;68.60
24326;DHT22;12448;45.532;5.290;2023-09-19T15:11:06;23.60;68.50
24326;DHT22;12448;45.532;5.290;2023-09-19T15:13:35;23.60;67.80
24326;DHT22;12448;45.532;5.290;2023-09-19T15:16:05;23.50;67.60
24326;DHT22;12448;45.532;5.290;2023-09-19T15:18:34;23.60;67.80
24326;DHT22;12448;45.532;5.290;2023-09-19T15:21:06;23.50;65.20
24326;DHT22;12448;45.532;5.290;2023-09-19T15:23:33;23.50;66.20
24326;DHT22;12448;45.532;5.290;2023-09-19T15:26:06;23.40;64.30
24326;DHT22;12448;45.532;5.290;2023-09-19T15:28:32;23.30;65.00
24326;DHT22;12448;45.532;5.290;2023-09-19T15:31:03;23.20;64.20
24326;DHT22;12448;45.532;5.290;2023-09-19T15:33:29;23.20;65.40
24326;DHT22;12448;45.532;5.290;2023-09-19T15:36:11;23.20;65.20
24326;DHT22;12448;45.532;5.290;2023-09-19T15:41:33;23.20;64.40
24326;DHT22;12448;45.532;5.290;2023-09-19T15:44:01;23.10;65.10
24326;DHT22;12448;45.532;5.290;2023-09-19T15:46:28;23.10;65.50
24326;DHT22;12448;45.532;5.290;2023-09-19T15:48:55;23.10;65.90
24326;DHT22;12448;45.532;5.290;2023-09-19T15:51:21;23.10;66.50
24326;DHT22;12448;45.532;5.290;2023-09-19T15:53:49;23.00;65.60
24326;DHT22;12448;45.532;5.290;2023-09-19T15:56:18;23.00;67.30
24326;DHT22;12448;45.532;5.290;2023-09-19T15:58:49;23.00;68.30
24326;DHT22;12448;45.532;5.290;2023-09-19T16:01:15;23.00;69.30
24326;DHT22;12448;45.532;5.290;2023-09-19T16:03:46;23.00;69.50
24326;DHT22;12448;45.532;5.290;2023-09-19T16:06:19;23.10;69.50
24326;DHT22;12448;45.532;5.290;2023-09-19T16:08:47;23.10;69.70
24326;DHT22;12448;45.532;5.290;2023-09-19T16:11:13;23.10;69.50
24326;DHT22;12448;45.532;5.290;2023-09-19T16:13:40;23.10;69.50
24326;DHT22;12448;45.532;5.290;2023-09-19T16:16:11;23.10;70.00
24326;DHT22;12448;45.532;5.290;2023-09-19T16:18:43;22.70;70.00
24326;DHT22;12448;45.532;5.290;2023-09-19T16:21:10;23.10;70.10
24326;DHT22;12448;45.532;5.290;2023-09-19T16:23:36;22.70;69.20
24326;DHT22;12448;45.532;5.290;2023-09-19T16:26:08;23.00;69.60
24326;DHT22;12448;45.532;5.290;2023-09-19T16:28:39;23.50;69.60
24326;DHT22;12448;45.532;5.290;2023-09-19T16:31:07;22.90;68.70
24326;DHT22;12448;45.532;5.290;2023-09-19T16:33:34;22.90;69.20
24326;DHT22;12448;45.532;5.290;2023-09-19T16:36:00;22.80;66.80
24326;DHT22;12448;45.532;5.290;2023-09-19T16:38:26;22.80;66.60
24326;DHT22;12448;45.532;5.290;2023-09-19T16:40:56;22.80;66.00
24326;DHT22;12448;45.532;5.290;2023-09-19T16:43:26;22.80;65.60
24326;DHT22;12448;45.532;5.290;2023-09-19T16:45:56;22.80;66.00
24326;DHT22;12448;45.532;5.290;2023-09-19T16:48:26;22.80;67.10
24326;DHT22;12448;45.532;5.290;2023-09-19T16:50:53;22.80;67.10
24326;DHT22;12448;45.532;5.290;2023-09-19T16:53:19;22.80;67.30
24326;DHT22;12448;45.532;5.290;2023-09-19T16:55:48;22.80;67.00
24326;DHT22;12448;45.532;5.290;2023-09-19T16:58:14;22.80;67.10
24326;DHT22;12448;45.532;5.290;2023-09-19T17:00:41;22.80;67.00
24326;DHT22;12448;45.532;5.290;2023-09-19T17:03:11;22.80;67.20
24326;DHT22;12448;45.532;5.290;2023-09-19T17:05:38;22.80;67.40
24326;DHT22;12448;45.532;5.290;2023-09-19T17:08:06;22.80;67.60
24326;DHT22;12448;45.532;5.290;2023-09-19T17:10:33;22.80;68.10
24326;DHT22;12448;45.532;5.290;2023-09-19T17:13:03;22.70;68.90
24326;DHT22;12448;45.532;5.290;2023-09-19T17:15:31;22.70;69.60
24326;DHT22;12448;45.532;5.290;2023-09-19T17:17:57;22.70;70.80
24326;DHT22;12448;45.532;5.290;2023-09-19T17:20:23;22.70;72.00
24326;DHT22;12448;45.532;5.290;2023-09-19T17:22:49;22.60;72.40
24326;DHT22;12448;45.532;5.290;2023-09-19T17:25:15;22.60;72.40
24326;DHT22;12448;45.532;5.290;2023-09-19T17:27:42;22.60;72.80
24326;DHT22;12448;45.532;5.290;2023-09-19T17:30:09;22.50;73.50
24326;DHT22;12448;45.532;5.290;2023-09-19T17:32:44;22.50;74.00
24326;DHT22;12448;45.532;5.290;2023-09-19T17:35:12;21.80;74.30
24326;DHT22;12448;45.532;5.290;2023-09-19T17:37:39;22.40;75.60
24326;DHT22;12448;45.532;5.290;2023-09-19T17:40:07;22.30;77.10
24326;DHT22;12448;45.532;5.290;2023-09-19T17:42:37;22.20;77.00
24326;DHT22;12448;45.532;5.290;2023-09-19T17:45:04;22.20;77.80
24326;DHT22;12448;45.532;5.290;2023-09-19T17:47:30;22.10;78.10
24326;DHT22;12448;45.532;5.290;2023-09-19T17:49:58;22.10;78.60
24326;DHT22;12448;45.532;5.290;2023-09-19T17:52:31;22.00;78.90
24326;DHT22;12448;45.532;5.290;2023-09-19T17:54:57;21.90;79.30
24326;DHT22;12448;45.532;5.290;2023-09-19T17:57:29;21.90;79.60
24326;DHT22;12448;45.532;5.290;2023-09-19T17:59:55;21.80;79.60
24326;DHT22;12448;45.532;5.290;2023-09-19T18:02:26;21.80;79.90
24326;DHT22;12448;45.532;5.290;2023-09-19T18:05:01;21.80;80.20
24326;DHT22;12448;45.532;5.290;2023-09-19T18:07:43;21.70;80.30
24326;DHT22;12448;45.532;5.290;2023-09-19T18:10:14;21.70;80.90
24326;DHT22;12448;45.532;5.290;2023-09-19T18:12:40;21.60;81.20
24326;DHT22;12448;45.532;5.290;2023-09-19T18:15:10;21.60;81.60
24326;DHT22;12448;45.532;5.290;2023-09-19T18:18:01;21.50;81.90
24326;DHT22;12448;45.532;5.290;2023-09-19T18:20:34;21.50;81.60
24326;DHT22;12448;45.532;5.290;2023-09-19T18:26:05;21.50;82.30
24326;DHT22;12448;45.532;5.290;2023-09-19T18:28:36;21.40;82.90
24326;DHT22;12448;45.532;5.290;2023-09-19T18:31:07;21.30;82.90
24326;DHT22;12448;45.532;5.290;2023-09-19T18:33:34;21.30;83.20
24326;DHT22;12448;45.532;5.290;2023-09-19T18:36:03;21.30;83.10
24326;DHT22;12448;45.532;5.290;2023-09-19T18:38:40;21.20;82.50
24326;DHT22;12448;45.532;5.290;2023-09-19T18:41:07;21.20;82.80
24326;DHT22;12448;45.532;5.290;2023-09-19T18:43:33;21.20;83.30
24326;DHT22;12448;45.532;5.290;2023-09-19T18:45:59;21.20;83.40
24326;DHT22;12448;45.532;5.290;2023-09-19T18:48:25;21.10;83.30
24326;DHT22;12448;45.532;5.290;2023-09-19T18:50:51;21.10;83.50
24326;DHT22;12448;45.532;5.290;2023-09-19T18:53:17;21.10;83.80
24326;DHT22;12448;45.532;5.290;2023-09-19T18:55:44;21.10;83.60